createdAt,value
2023-11-30T00:00:11.994Z,88.73
2023-11-30T00:02:38.484Z,88.78
2023-11-30T00:05:08.249Z,88.85
2023-11-30T00:07:35.001Z,88.83
2023-11-30T00:10:01.962Z,88.97
2023-11-30T00:12:28.518Z,88.90
2023-11-30T00:14:55.071Z,88.74
2023-11-30T00:17:21.617Z,88.76
2023-11-30T00:19:48.115Z,89.14
2023-11-30T00:22:14.681Z,89.39
2023-11-30T00:24:41.130Z,89.51
2023-11-30T00:27:07.646Z,89.43
2023-11-30T00:29:34.108Z,88.89
2023-11-30T00:32:00.528Z,89.32
2023-11-30T00:34:26.970Z,89.27
2023-11-30T00:36:53.429Z,89.42
2023-11-30T00:39:20.081Z,89.19
2023-11-30T00:41:46.640Z,89.59
2023-11-30T00:44:13.275Z,89.51
2023-11-30T00:46:39.766Z,89.38
2023-11-30T00:49:06.382Z,89.40
2023-11-30T00:51:32.928Z,89.03
2023-11-30T00:53:59.426Z,88.87
2023-11-30T00:56:25.975Z,89.12
2023-11-30T00:58:52.419Z,89.00
2023-11-30T01:01:18.940Z,89.08
2023-11-30T01:03:45.566Z,89.18
2023-11-30T01:06:12.083Z,89.37
2023-11-30T01:08:38.592Z,88.82
2023-11-30T01:11:05.134Z,89.17
2023-11-30T01:13:31.602Z,88.84
2023-11-30T01:15:58.185Z,88.82
2023-11-30T01:18:24.886Z,89.22
2023-11-30T01:20:51.516Z,89.38
2023-11-30T01:23:18.037Z,89.40
2023-11-30T01:25:44.499Z,89.38
2023-11-30T01:28:11.094Z,89.30
2023-11-30T01:30:37.582Z,89.37
2023-11-30T01:33:04.189Z,89.47
2023-11-30T01:35:30.901Z,88.62
2023-11-30T01:37:57.616Z,89.20
2023-11-30T01:40:24.324Z,89.06
2023-11-30T01:42:51.412Z,89.13
2023-11-30T01:45:18.065Z,89.43
2023-11-30T01:47:45.420Z,89.32
2023-11-30T01:50:12.001Z,88.96
2023-11-30T01:52:41.397Z,88.77
2023-11-30T01:55:09.378Z,89.04
2023-11-30T01:57:36.578Z,89.31
2023-11-30T02:00:05.578Z,89.39
2023-11-30T02:02:39.375Z,88.96
2023-11-30T02:05:06.420Z,89.03
2023-11-30T02:07:32.874Z,88.98
2023-11-30T02:09:59.460Z,89.19
2023-11-30T02:12:26.015Z,89.03
2023-11-30T02:14:52.538Z,89.16
2023-11-30T02:17:19.117Z,89.42
2023-11-30T02:19:45.576Z,89.10
2023-11-30T02:22:12.114Z,88.94
2023-11-30T02:24:38.542Z,89.05
2023-11-30T02:27:05.111Z,89.33
2023-11-30T02:29:32.093Z,89.31
2023-11-30T02:31:58.847Z,88.91
2023-11-30T02:34:25.340Z,89.68
2023-11-30T02:36:53.017Z,88.82
2023-11-30T02:39:19.983Z,89.26
2023-11-30T02:41:46.570Z,89.77
2023-11-30T02:44:13.017Z,89.18
2023-11-30T02:46:40.770Z,89.14
2023-11-30T02:49:07.312Z,89.11
2023-11-30T02:51:34.497Z,89.02
2023-11-30T02:54:01.191Z,89.30
2023-11-30T02:56:27.736Z,89.34
2023-11-30T02:58:54.209Z,89.46
2023-11-30T03:01:20.833Z,89.50
2023-11-30T03:03:47.358Z,89.31
2023-11-30T03:06:14.378Z,89.31
2023-11-30T03:08:40.892Z,89.20
2023-11-30T03:11:07.507Z,88.93
2023-11-30T03:13:33.950Z,89.20
2023-11-30T03:16:00.420Z,89.38
2023-11-30T03:18:26.935Z,89.14
2023-11-30T03:20:53.510Z,89.04
2023-11-30T03:23:20.052Z,89.34
2023-11-30T03:25:47.057Z,89.36
2023-11-30T03:28:13.845Z,89.57
2023-11-30T03:30:40.753Z,89.30
2023-11-30T03:33:07.411Z,89.17
2023-11-30T03:35:33.954Z,89.07
2023-11-30T03:38:00.448Z,89.17
2023-11-30T03:40:26.888Z,88.80
2023-11-30T03:42:53.364Z,89.26
2023-11-30T03:45:22.160Z,89.18
2023-11-30T03:47:48.601Z,89.03
2023-11-30T03:50:15.279Z,89.29
2023-11-30T03:52:41.784Z,88.94
2023-11-30T03:55:08.709Z,89.10
2023-11-30T03:57:35.206Z,88.61
2023-11-30T04:00:01.786Z,88.54
2023-11-30T04:02:31.114Z,89.33
2023-11-30T04:04:57.731Z,89.19
2023-11-30T04:07:30.716Z,89.54
2023-11-30T04:09:57.332Z,89.12
2023-11-30T04:12:23.779Z,89.66
2023-11-30T04:14:50.252Z,89.40
2023-11-30T04:17:16.796Z,89.36
2023-11-30T04:19:43.341Z,89.17
2023-11-30T04:22:09.856Z,89.48
2023-11-30T04:24:36.373Z,89.56
2023-11-30T04:27:02.974Z,89.06
2023-11-30T04:29:29.377Z,89.41
2023-11-30T04:31:56.638Z,89.16
2023-11-30T04:34:23.181Z,89.41
2023-11-30T04:36:49.646Z,89.43
2023-11-30T04:39:16.295Z,89.56
2023-11-30T04:41:42.744Z,89.70
2023-11-30T04:44:10.116Z,89.48
2023-11-30T04:46:36.752Z,89.26
2023-11-30T04:49:05.722Z,89.26
2023-11-30T04:51:32.229Z,89.41
2023-11-30T04:53:58.741Z,89.43
2023-11-30T04:56:25.257Z,89.78
2023-11-30T04:58:51.654Z,89.16
2023-11-30T05:01:18.162Z,89.17
2023-11-30T05:03:45.697Z,89.58
2023-11-30T05:06:12.484Z,89.34
2023-11-30T05:08:38.954Z,89.30
2023-11-30T05:11:05.604Z,89.31
2023-11-30T05:13:31.998Z,88.55
2023-11-30T05:16:00.285Z,89.05
2023-11-30T05:18:26.760Z,88.96
2023-11-30T05:20:53.240Z,89.27
2023-11-30T05:23:19.641Z,89.19
2023-11-30T05:25:47.032Z,89.17
2023-11-30T05:28:13.557Z,89.13
2023-11-30T05:30:40.018Z,89.19
2023-11-30T05:33:07.165Z,88.83
2023-11-30T05:35:35.885Z,89.37
2023-11-30T05:38:02.392Z,89.09
2023-11-30T05:40:28.859Z,89.24
2023-11-30T05:42:55.506Z,88.86
2023-11-30T05:45:22.027Z,89.22
2023-11-30T05:47:48.542Z,89.49
2023-11-30T05:50:14.999Z,89.37
2023-11-30T05:52:41.397Z,89.19
2023-11-30T05:55:08.857Z,89.47
2023-11-30T05:57:36.688Z,88.74
2023-11-30T06:00:04.863Z,88.98
2023-11-30T06:02:38.988Z,88.89
2023-11-30T06:05:06.220Z,88.64
2023-11-30T06:07:32.799Z,88.91
2023-11-30T06:09:59.269Z,88.39
2023-11-30T06:12:25.782Z,88.60
2023-11-30T06:14:52.354Z,89.24
2023-11-30T06:17:18.798Z,89.43
2023-11-30T06:19:46.227Z,89.43
2023-11-30T06:22:13.954Z,88.99
2023-11-30T06:24:40.455Z,89.90
2023-11-30T06:27:08.316Z,89.50
2023-11-30T06:29:34.771Z,89.69
2023-11-30T06:32:01.923Z,89.25
2023-11-30T06:34:29.723Z,89.25
2023-11-30T06:36:56.901Z,89.35
2023-11-30T06:39:23.380Z,89.19
2023-11-30T06:41:52.397Z,89.06
2023-11-30T06:44:21.258Z,89.27
2023-11-30T06:46:47.897Z,89.29
2023-11-30T06:49:14.484Z,89.63
2023-11-30T06:51:41.040Z,89.23
2023-11-30T06:54:07.539Z,89.28
2023-11-30T06:56:33.993Z,88.94
2023-11-30T06:59:00.447Z,89.64
2023-11-30T07:01:27.320Z,89.27
2023-11-30T07:03:55.400Z,89.21
2023-11-30T07:06:23.005Z,89.50
2023-11-30T07:08:49.471Z,89.46
2023-11-30T07:11:15.916Z,89.20
2023-11-30T07:13:42.437Z,89.19
2023-11-30T07:16:09.717Z,89.57
2023-11-30T07:18:36.186Z,88.92
2023-11-30T07:21:03.043Z,89.76
2023-11-30T07:23:29.523Z,89.29
2023-11-30T07:25:55.942Z,88.97
2023-11-30T07:28:22.418Z,89.20
2023-11-30T07:30:48.914Z,89.06
2023-11-30T07:33:15.535Z,89.52
2023-11-30T07:35:42.053Z,89.19
2023-11-30T07:38:08.872Z,89.18
2023-11-30T07:40:35.569Z,89.48
2023-11-30T07:43:02.126Z,89.25
2023-11-30T07:45:29.738Z,89.40
2023-11-30T07:47:57.658Z,89.57
2023-11-30T07:50:28.112Z,89.32
2023-11-30T07:52:55.348Z,89.44
2023-11-30T07:55:22.060Z,89.42
2023-11-30T07:57:50.328Z,89.10
2023-11-30T08:00:17.198Z,89.48
2023-11-30T08:02:44.023Z,89.30
2023-11-30T08:05:13.338Z,89.00
2023-11-30T08:07:39.795Z,89.28
2023-11-30T08:10:07.419Z,89.15
2023-11-30T08:12:34.116Z,89.80
2023-11-30T08:15:00.792Z,89.55
2023-11-30T08:17:27.354Z,89.06
2023-11-30T08:19:53.862Z,89.25
2023-11-30T08:22:20.336Z,89.40
2023-11-30T08:24:46.806Z,89.24
2023-11-30T08:27:13.390Z,88.95
2023-11-30T08:29:39.946Z,89.20
2023-11-30T08:32:06.697Z,89.09
2023-11-30T08:34:33.269Z,89.10
2023-11-30T08:37:01.024Z,89.02
2023-11-30T08:39:29.778Z,88.96
2023-11-30T08:41:56.556Z,89.12
2023-11-30T08:44:24.096Z,89.16
2023-11-30T08:46:50.880Z,89.13
2023-11-30T08:49:18.009Z,88.74
2023-11-30T08:51:45.794Z,89.25
2023-11-30T08:54:12.707Z,88.94
2023-11-30T08:56:39.196Z,89.50
2023-11-30T08:59:05.715Z,88.69
2023-11-30T09:01:33.667Z,88.59
2023-11-30T09:04:07.065Z,88.97
2023-11-30T09:06:34.707Z,88.17
2023-11-30T09:09:02.457Z,88.42
2023-11-30T09:11:31.858Z,88.09
2023-11-30T09:13:58.558Z,88.52
2023-11-30T09:16:26.580Z,88.42
2023-11-30T09:18:56.223Z,87.78
2023-11-30T09:21:24.185Z,88.58
2023-11-30T09:23:52.008Z,88.58
2023-11-30T09:26:21.839Z,88.77
2023-11-30T09:28:48.520Z,88.62
2023-11-30T09:31:15.050Z,88.58
2023-11-30T09:33:41.699Z,88.33
2023-11-30T09:36:08.993Z,88.70
2023-11-30T09:38:35.409Z,88.96
2023-11-30T09:41:09.236Z,88.66
2023-11-30T09:43:36.315Z,88.78
2023-11-30T09:46:02.961Z,88.65
2023-11-30T09:48:29.591Z,88.71
2023-11-30T09:50:56.162Z,89.14
2023-11-30T09:53:22.722Z,88.91
2023-11-30T09:55:49.293Z,88.89
2023-11-30T09:58:16.447Z,88.92
2023-11-30T10:00:43.268Z,88.81
2023-11-30T10:03:10.386Z,88.91
2023-11-30T10:05:36.995Z,89.60
2023-11-30T10:08:04.167Z,88.84
2023-11-30T10:10:30.767Z,89.06
2023-11-30T10:12:57.306Z,88.08
2023-11-30T10:15:24.188Z,88.46
2023-11-30T10:17:51.050Z,88.46
2023-11-30T10:20:19.770Z,89.16
2023-11-30T10:22:46.465Z,88.88
2023-11-30T10:25:14.079Z,88.98
2023-11-30T10:27:42.389Z,88.56
2023-11-30T10:30:12.414Z,87.62
2023-11-30T10:32:40.718Z,88.51
2023-11-30T10:35:12.826Z,88.29
2023-11-30T10:37:48.948Z,88.60
2023-11-30T10:40:18.118Z,88.29
2023-11-30T10:42:49.910Z,88.13
2023-11-30T10:45:17.162Z,88.58
2023-11-30T10:47:44.319Z,88.02
2023-11-30T10:50:12.877Z,88.02
2023-11-30T10:52:40.739Z,87.72
2023-11-30T10:55:17.493Z,87.58
2023-11-30T10:57:45.016Z,87.38
2023-11-30T11:00:13.787Z,87.26
2023-11-30T11:02:45.510Z,87.48
2023-11-30T11:05:16.173Z,86.68
2023-11-30T11:07:50.475Z,86.15
2023-11-30T11:10:28.717Z,86.27
2023-11-30T11:12:59.948Z,86.49
2023-11-30T11:15:29.511Z,85.96
2023-11-30T11:18:08.990Z,85.65
2023-11-30T11:20:37.056Z,85.86
2023-11-30T11:23:03.413Z,85.44
2023-11-30T11:25:29.945Z,85.06
2023-11-30T11:27:56.970Z,85.08
2023-11-30T11:30:28.064Z,84.55
2023-11-30T11:33:00.692Z,84.48
2023-11-30T11:35:28.305Z,84.70
2023-11-30T11:38:01.161Z,83.60
2023-11-30T11:40:28.242Z,84.16
2023-11-30T11:42:55.458Z,84.11
2023-11-30T11:45:22.451Z,84.29
2023-11-30T11:47:49.119Z,83.84
2023-11-30T11:50:16.103Z,84.56
2023-11-30T11:52:42.650Z,83.47
2023-11-30T11:55:11.583Z,83.84
2023-11-30T11:57:47.279Z,83.07
2023-11-30T12:00:17.845Z,83.12
2023-11-30T12:02:45.551Z,83.14
2023-11-30T12:05:21.732Z,83.06
2023-11-30T12:07:50.384Z,83.11
2023-11-30T12:10:40.440Z,82.98
2023-11-30T12:13:14.521Z,83.43
2023-11-30T12:15:41.822Z,83.41
2023-11-30T12:18:09.120Z,83.33
2023-11-30T12:20:36.222Z,83.42
2023-11-30T12:23:03.133Z,83.06
2023-11-30T12:25:29.582Z,83.19
2023-11-30T12:27:56.017Z,83.06
2023-11-30T12:30:24.075Z,82.41
2023-11-30T12:32:50.588Z,82.03
2023-11-30T12:35:17.069Z,82.36
2023-11-30T12:37:43.682Z,82.20
2023-11-30T12:40:11.470Z,81.01
2023-11-30T12:42:38.323Z,81.00
2023-11-30T12:45:06.063Z,84.07
2023-11-30T12:47:33.048Z,82.07
2023-11-30T12:49:59.658Z,81.15
2023-11-30T12:52:28.012Z,80.37
2023-11-30T12:54:54.609Z,80.82
2023-11-30T12:57:21.331Z,80.39
2023-11-30T12:59:47.932Z,79.47
2023-11-30T13:02:14.595Z,79.88
2023-11-30T13:04:42.069Z,79.41
2023-11-30T13:07:08.738Z,79.51
2023-11-30T13:09:36.297Z,79.36
2023-11-30T13:12:03.639Z,78.51
2023-11-30T13:14:30.637Z,78.51
2023-11-30T13:16:57.403Z,78.89
2023-11-30T13:19:25.093Z,78.85
2023-11-30T13:21:52.773Z,78.66
2023-11-30T13:24:19.789Z,78.94
2023-11-30T13:26:50.006Z,78.41
2023-11-30T13:29:16.650Z,78.69
2023-11-30T13:31:43.529Z,79.27
2023-11-30T13:34:10.036Z,79.00
2023-11-30T13:36:36.496Z,78.95
2023-11-30T13:39:05.656Z,78.97
2023-11-30T13:41:32.181Z,79.27
2023-11-30T13:43:58.664Z,79.37
2023-11-30T13:46:25.206Z,79.35
2023-11-30T13:48:51.947Z,79.28
2023-11-30T13:51:18.621Z,79.81
2023-11-30T13:53:45.216Z,80.33
2023-11-30T13:56:12.059Z,80.33
2023-11-30T13:58:38.670Z,79.85
2023-11-30T14:01:05.421Z,80.41
2023-11-30T14:03:31.974Z,80.64
2023-11-30T14:05:58.658Z,80.44
2023-11-30T14:08:27.606Z,80.80
2023-11-30T14:10:54.130Z,80.43
2023-11-30T14:13:20.585Z,80.38
2023-11-30T14:15:47.027Z,80.17
2023-11-30T14:18:13.536Z,80.93
2023-11-30T14:20:40.929Z,80.55
2023-11-30T14:23:07.389Z,80.41
2023-11-30T14:25:34.712Z,80.47
2023-11-30T14:28:07.546Z,80.71
2023-11-30T14:30:38.466Z,80.19
2023-11-30T14:33:05.329Z,80.81
2023-11-30T14:35:33.157Z,81.02
2023-11-30T14:37:59.986Z,80.98
2023-11-30T14:40:26.612Z,81.51
2023-11-30T14:42:53.577Z,81.51
2023-11-30T14:45:20.343Z,81.50
2023-11-30T14:47:47.830Z,81.04
2023-11-30T14:50:16.735Z,81.32
2023-11-30T14:52:45.845Z,81.05
2023-11-30T14:55:13.716Z,81.31
2023-11-30T14:57:42.094Z,81.20
2023-11-30T15:00:13.358Z,81.36
2023-11-30T15:02:40.589Z,81.52
2023-11-30T15:05:10.122Z,81.33
2023-11-30T15:07:37.790Z,81.91
2023-11-30T15:10:05.469Z,81.90
2023-11-30T15:12:32.165Z,82.57
2023-11-30T15:14:58.757Z,82.55
2023-11-30T15:17:25.344Z,82.27
2023-11-30T15:19:55.146Z,82.60
2023-11-30T15:22:21.653Z,82.90
2023-11-30T15:24:48.228Z,83.24
2023-11-30T15:27:15.003Z,83.77
2023-11-30T15:29:41.527Z,83.80
2023-11-30T15:32:07.952Z,83.58
2023-11-30T15:34:34.383Z,83.97
2023-11-30T15:37:00.836Z,84.35
2023-11-30T15:39:27.441Z,84.27
2023-11-30T15:41:53.991Z,84.13
2023-11-30T15:44:20.438Z,85.03
2023-11-30T15:46:47.261Z,84.63
2023-11-30T15:49:13.771Z,84.87
2023-11-30T15:51:43.736Z,85.16
2023-11-30T15:54:10.812Z,85.18
2023-11-30T15:56:37.502Z,85.18
2023-11-30T15:59:04.670Z,84.94
2023-11-30T16:01:32.326Z,85.26
2023-11-30T16:03:59.642Z,85.27
2023-11-30T16:06:27.007Z,85.30
2023-11-30T16:08:54.515Z,85.33
2023-11-30T16:11:21.216Z,85.52
2023-11-30T16:13:47.839Z,85.48
2023-11-30T16:16:14.474Z,85.97
2023-11-30T16:18:42.127Z,85.67
2023-11-30T16:21:19.546Z,86.09
2023-11-30T16:23:47.858Z,85.71
2023-11-30T16:26:21.903Z,86.10
2023-11-30T16:28:49.730Z,86.01
2023-11-30T16:31:16.479Z,85.69
2023-11-30T16:33:43.488Z,86.21
2023-11-30T16:36:10.945Z,86.41
2023-11-30T16:38:37.626Z,87.56
2023-11-30T16:41:04.655Z,87.60
2023-11-30T16:43:32.362Z,87.84
2023-11-30T16:45:59.073Z,87.33
2023-11-30T16:48:25.646Z,87.68
2023-11-30T16:50:52.144Z,87.86
2023-11-30T16:53:18.632Z,87.80
2023-11-30T16:55:46.304Z,87.61
2023-11-30T16:58:12.822Z,87.61
2023-11-30T17:00:40.346Z,87.93
2023-11-30T17:03:06.942Z,88.00
2023-11-30T17:05:33.403Z,87.91
2023-11-30T17:07:59.860Z,87.92
2023-11-30T17:10:26.354Z,88.33
2023-11-30T17:12:52.992Z,88.01
2023-11-30T17:15:19.637Z,88.33
2023-11-30T17:17:49.216Z,88.23
2023-11-30T17:20:16.249Z,88.04
2023-11-30T17:22:44.952Z,88.14
2023-11-30T17:25:11.426Z,88.19
2023-11-30T17:27:37.889Z,88.88
2023-11-30T17:30:05.437Z,88.25
2023-11-30T17:32:32.032Z,88.23
2023-11-30T17:34:58.776Z,88.19
2023-11-30T17:37:25.395Z,88.38
2023-11-30T17:39:52.057Z,88.24
2023-11-30T17:42:20.607Z,88.37
2023-11-30T17:44:47.098Z,88.31
2023-11-30T17:47:16.122Z,88.62
2023-11-30T17:49:43.744Z,88.35
2023-11-30T17:52:10.689Z,97.68
2023-11-30T17:54:37.160Z,92.63
2023-11-30T17:57:03.869Z,90.24
2023-11-30T17:59:30.307Z,89.30
2023-11-30T18:01:56.803Z,89.19
2023-11-30T18:04:23.379Z,89.07
2023-11-30T18:06:50.031Z,89.21
2023-11-30T18:09:16.481Z,88.96
2023-11-30T18:11:42.920Z,88.96
2023-11-30T18:14:09.426Z,88.83
2023-11-30T18:16:35.877Z,88.94
2023-11-30T18:19:03.321Z,89.00
2023-11-30T18:21:31.877Z,89.38
2023-11-30T18:23:58.497Z,89.24
2023-11-30T18:26:25.978Z,89.12
2023-11-30T18:28:53.911Z,89.21
2023-11-30T18:31:22.784Z,89.06
2023-11-30T18:33:50.859Z,89.18
2023-11-30T18:36:17.462Z,89.19
2023-11-30T18:38:50.403Z,89.23
2023-11-30T18:41:19.041Z,88.84
2023-11-30T18:43:45.498Z,88.99
2023-11-30T18:46:13.790Z,89.23
2023-11-30T18:48:40.221Z,89.48
2023-11-30T18:51:07.060Z,88.97
2023-11-30T18:53:33.948Z,89.04
2023-11-30T18:56:01.528Z,88.58
2023-11-30T18:58:28.233Z,88.88
2023-11-30T19:00:55.871Z,89.08
2023-11-30T19:03:23.083Z,88.95
2023-11-30T19:05:50.390Z,89.06
2023-11-30T19:08:16.835Z,88.98
2023-11-30T19:10:43.240Z,89.50
2023-11-30T19:13:09.697Z,88.53
2023-11-30T19:15:38.866Z,89.03
2023-11-30T19:18:06.551Z,88.60
2023-11-30T19:20:33.060Z,89.10
2023-11-30T19:22:59.641Z,88.95
2023-11-30T19:25:26.286Z,89.09
2023-11-30T19:27:54.323Z,88.74
2023-11-30T19:30:21.586Z,88.78
2023-11-30T19:32:48.226Z,89.10
2023-11-30T19:35:15.032Z,88.83
2023-11-30T19:37:41.574Z,88.92
2023-11-30T19:40:08.732Z,88.55
2023-11-30T19:42:35.203Z,88.97
2023-11-30T19:45:01.697Z,89.03
2023-11-30T19:47:28.253Z,89.31
2023-11-30T19:49:54.737Z,89.45
2023-11-30T19:52:21.170Z,89.37
2023-11-30T19:54:47.671Z,89.13
2023-11-30T19:57:14.143Z,89.84
2023-11-30T19:59:41.368Z,89.49
2023-11-30T20:02:08.025Z,89.95
2023-11-30T20:04:35.240Z,89.21
2023-11-30T20:07:01.798Z,89.37
2023-11-30T20:09:28.335Z,89.00
2023-11-30T20:11:54.782Z,89.02
2023-11-30T20:14:21.371Z,89.13
2023-11-30T20:16:47.943Z,89.02
2023-11-30T20:19:14.685Z,88.97
2023-11-30T20:21:41.212Z,89.12
2023-11-30T20:24:08.569Z,89.17
2023-11-30T20:26:39.223Z,89.15
2023-11-30T20:29:05.700Z,89.44
2023-11-30T20:31:33.504Z,89.42
2023-11-30T20:34:00.040Z,89.25
2023-11-30T20:36:26.618Z,89.39
2023-11-30T20:38:53.082Z,89.30
2023-11-30T20:41:19.619Z,89.09
2023-11-30T20:43:46.113Z,88.88
2023-11-30T20:46:13.894Z,88.85
2023-11-30T20:48:40.732Z,88.82
2023-11-30T20:51:07.366Z,88.73
2023-11-30T20:53:33.877Z,88.63
2023-11-30T20:56:00.279Z,88.86
2023-11-30T20:58:27.337Z,88.39
2023-11-30T21:00:53.998Z,88.85
2023-11-30T21:03:20.638Z,88.65
2023-11-30T21:05:49.722Z,88.52
2023-11-30T21:08:16.592Z,89.04
2023-11-30T21:10:43.000Z,88.52
2023-11-30T21:13:09.425Z,88.22
2023-11-30T21:15:36.204Z,88.60
2023-11-30T21:18:02.681Z,88.70
2023-11-30T21:20:29.189Z,87.60
2023-11-30T21:22:57.968Z,89.21
2023-11-30T21:25:24.453Z,89.08
2023-11-30T21:27:50.964Z,89.31
2023-11-30T21:30:19.270Z,89.13
2023-11-30T21:32:46.231Z,87.94
2023-11-30T21:35:12.709Z,88.88
2023-11-30T21:37:39.192Z,89.50
2023-11-30T21:40:06.117Z,89.47
2023-11-30T21:42:33.617Z,88.32
2023-11-30T21:45:02.124Z,88.77
2023-11-30T21:47:30.763Z,89.48
2023-11-30T21:49:57.298Z,89.82
2023-11-30T21:52:23.882Z,89.14
2023-11-30T21:54:50.351Z,90.21
2023-11-30T21:57:17.000Z,90.16
2023-11-30T21:59:43.504Z,90.73
2023-11-30T22:02:10.026Z,90.41
2023-11-30T22:04:36.746Z,89.79
2023-11-30T22:07:03.421Z,89.43
2023-11-30T22:09:29.910Z,89.41
2023-11-30T22:11:56.436Z,90.10
2023-11-30T22:14:23.219Z,89.54
2023-11-30T22:16:49.700Z,89.35
2023-11-30T22:19:16.391Z,89.84
2023-11-30T22:21:43.001Z,89.85
2023-11-30T22:24:09.470Z,89.84
2023-11-30T22:26:35.936Z,89.39
2023-11-30T22:29:03.452Z,89.36
2023-11-30T22:31:34.125Z,89.38
2023-11-30T22:34:00.870Z,89.68
2023-11-30T22:36:28.145Z,89.63
2023-11-30T22:38:54.993Z,88.99
2023-11-30T22:41:21.497Z,89.24
2023-11-30T22:43:47.977Z,89.09
2023-11-30T22:46:19.449Z,89.29
2023-11-30T22:48:49.854Z,88.80
2023-11-30T22:51:16.982Z,89.52
2023-11-30T22:53:43.612Z,89.64
2023-11-30T22:56:18.590Z,89.50
2023-11-30T22:58:46.169Z,89.11
2023-11-30T23:01:14.382Z,89.37
2023-11-30T23:03:41.145Z,89.02
2023-11-30T23:06:08.050Z,89.22
2023-11-30T23:08:34.475Z,89.01
2023-11-30T23:11:00.930Z,89.24
2023-11-30T23:13:27.346Z,89.18
2023-11-30T23:15:53.899Z,89.37
2023-11-30T23:18:20.365Z,89.21
2023-11-30T23:20:46.909Z,89.41
2023-11-30T23:23:13.461Z,89.47
2023-11-30T23:25:39.898Z,89.01
2023-11-30T23:28:06.426Z,89.17
2023-11-30T23:30:33.021Z,88.91
2023-11-30T23:32:59.623Z,88.96
2023-11-30T23:35:26.900Z,89.21
2023-11-30T23:37:53.322Z,88.74
2023-11-30T23:40:20.720Z,89.93
2023-11-30T23:42:47.170Z,89.60
2023-11-30T23:45:13.646Z,89.82
2023-11-30T23:47:40.117Z,89.40
2023-11-30T23:50:06.945Z,89.67
2023-11-30T23:52:33.465Z,89.82
2023-11-30T23:54:59.960Z,89.80
2023-11-30T23:57:26.499Z,89.85
2023-11-30T23:59:52.903Z,89.42
